This is the latest recevied weather packets stored in our database for station/object JM1YTT-13. If no packets are shown the sender has not sent any weather packets the latest 10 day(s).
| Time | Temp. | Humidity | Pressure | Rain* | Wind** | Luminosity | Snow |
|---|---|---|---|---|---|---|---|
| 1777848190 | 23.89° C | 82% | 995.3 hPa | 0 mm | - | - | - |
| 1777846390 | 23.89° C | 83% | 995 hPa | 0 mm | - | - | - |
| 1777844590 | 21.67° C | 84% | 996.4 hPa | 0 mm | - | - | - |
| 1777842790 | 21.67° C | 84% | 996.4 hPa | 0 mm | - | - | - |
| 1777840990 | 21.67° C | 84% | 996.4 hPa | 0 mm | - | - | - |
| 1777839190 | 21.67° C | 84% | 996.5 hPa | 0 mm | - | - | - |
| 1777837390 | 21.67° C | 84% | 997 hPa | 0 mm | - | - | - |
| 1777835590 | 21.11° C | 84% | 997.3 hPa | 0 mm | - | - | - |
| 1777833790 | 20° C | 86% | 998.3 hPa | 0 mm | - | - | - |
| 1777831990 | 20° C | 86% | 999 hPa | 0 mm | - | - | - |
| 1777830190 | 20° C | 85% | 1000.2 hPa | 0 mm | - | - | - |
| 1777828390 | 19.44° C | 85% | 1000.4 hPa | 0 mm | - | - | - |
| 1777826590 | 19.44° C | 86% | 1001.1 hPa | 0 mm | - | - | - |
| 1777824790 | 19.44° C | 87% | 1002 hPa | 0 mm | - | - | - |
| 1777822990 | 18.89° C | 89% | 1002.5 hPa | 0 mm | - | - | - |
| 1777821190 | 18.33° C | 89% | 1002.8 hPa | 0 mm | - | - | - |
| 1777819390 | 18.89° C | 87% | 1003.1 hPa | 0 mm | - | - | - |
| 1777817590 | 19.44° C | 82% | 1003 hPa | 0 mm | - | - | - |
| 1777815790 | 19.44° C | 79% | 1003.6 hPa | 0 mm | - | - | - |
| 1777813990 | 20° C | 77% | 1003.9 hPa | 0 mm | - | - | - |
| 1777812190 | 20° C | 79% | 1004.3 hPa | 0 mm | - | - | - |
| 1777810390 | 20° C | 78% | 1004.5 hPa | 0 mm | - | - | - |
| 1777808590 | 20° C | 78% | 1005 hPa | 0 mm | - | - | - |
| 1777806790 | 19.44° C | 78% | 1005 hPa | 0 mm | - | - | - |
| 1777804990 | 20° C | 76% | 1005.2 hPa | 0 mm | - | - | - |
* Rain latest hour (hover to see other rain measurements)
** Current wind speed in m/s (hover to see current wind gust speed)